Time;durP1;ratioP1;P1;durP2;ratioP2;P2;SDS_P1;SDS_P2;PMS_P1;PMS_P2;Temp;Humidity;BMP_temperature;BMP_pressure;BME280_temperature;BME280_humidity;BME280_pressure;Samples;Min_cycle;Max_cycle;Signal;HPM_P1;HPM_P2
2021/11/18 00:02:24;;;;;;;13.07;2.42;;;;;;;;;;4985797;28;20034;-53
2021/11/18 00:04:54;;;;;;;9.43;2.40;;;;;;;;;;4996418;28;20057;-54
2021/11/18 00:07:21;;;;;;;14.70;2.70;;;;;;;;;;5005775;28;20147;-56
2021/11/18 00:09:50;;;;;;;7.15;2.22;;;;;;;;;;4989135;28;20052;-53
2021/11/18 00:12:16;;;;;;;14.18;3.40;;;;;;;;;;4994945;28;20053;-55
2021/11/18 00:14:43;;;;;;;9.25;2.50;;;;;;;;;;4999828;28;20040;-51
2021/11/18 00:17:09;;;;;;;9.75;2.80;;;;;;;;;;5002501;28;20124;-53
2021/11/18 00:19:35;;;;;;;9.10;2.00;;;;;;;;;;4995734;28;20227;-54
2021/11/18 00:22:02;;;;;;;13.35;2.50;;;;;;;;;;4985582;28;20042;-53
2021/11/18 00:24:28;;;;;;;7.22;2.65;;;;;;;;;;4983312;28;20071;-52
2021/11/18 00:26:57;;;;;;;7.57;2.85;;;;;;;;;;4984947;28;20053;-54
2021/11/18 00:29:24;;;;;;;10.50;2.67;;;;;;;;;;4980553;28;20053;-54
2021/11/18 00:31:50;;;;;;;12.98;2.72;;;;;;;;;;4984813;28;20046;-53
2021/11/18 00:34:17;;;;;;;7.00;2.10;;;;;;;;;;4998587;28;20042;-55
2021/11/18 00:36:43;;;;;;;9.07;2.78;;;;;;;;;;4981295;28;20050;-53
2021/11/18 00:39:10;;;;;;;10.43;2.72;;;;;;;;;;4984710;28;20082;-55
2021/11/18 00:41:37;;;;;;;10.48;3.15;;;;;;;;;;4983907;28;20034;-54
2021/11/18 00:44:06;;;;;;;11.88;2.63;;;;;;;;;;5004308;28;20041;-56
2021/11/18 00:46:33;;;;;;;8.68;2.92;;;;;;;;;;5003493;28;20107;-56
2021/11/18 00:49:00;;;;;;;12.05;3.10;;;;;;;;;;5005292;28;20041;-56
2021/11/18 00:51:27;;;;;;;12.23;4.28;;;;;;;;;;5011942;28;20041;-56
2021/11/18 00:53:54;;;;;;;15.30;3.80;;;;;;;;;;5042990;28;20142;-55
2021/11/18 00:56:21;;;;;;;15.30;3.40;;;;;;;;;;5020885;28;20049;-55
2021/11/18 00:58:48;;;;;;;12.82;3.13;;;;;;;;;;5024970;28;20034;-52
2021/11/18 01:01:16;;;;;;;11.38;2.83;;;;;;;;;;5038240;28;20076;-56
2021/11/18 01:03:43;;;;;;;9.00;2.75;;;;;;;;;;5041395;28;20041;-56
2021/11/18 01:06:09;;;;;;;11.80;3.22;;;;;;;;;;5020195;28;20053;-55
2021/11/18 01:08:36;;;;;;;13.77;2.85;;;;;;;;;;5007218;28;20052;-56
2021/11/18 01:11:06;;;;;;;11.73;2.70;;;;;;;;;;5005650;28;20034;-55
2021/11/18 01:13:33;;;;;;;9.60;3.08;;;;;;;;;;5026986;28;20045;-55
2021/11/18 01:16:00;;;;;;;9.40;3.13;;;;;;;;;;5027654;28;20135;-53
2021/11/18 01:18:28;;;;;;;12.27;3.47;;;;;;;;;;5026745;28;20037;-56
2021/11/18 01:20:57;;;;;;;7.43;2.53;;;;;;;;;;5046397;28;20045;-55
2021/11/18 01:23:25;;;;;;;13.10;2.90;;;;;;;;;;5009897;28;20052;-52
2021/11/18 01:25:52;;;;;;;11.97;3.20;;;;;;;;;;5009128;28;20127;-56
2021/11/18 01:28:18;;;;;;;17.05;2.70;;;;;;;;;;5003627;28;20280;-57
2021/11/18 01:30:46;;;;;;;9.48;2.78;;;;;;;;;;5008006;28;20074;-57
2021/11/18 01:33:14;;;;;;;4.70;1.88;;;;;;;;;;5010275;28;20073;-57
2021/11/18 01:35:42;;;;;;;8.82;2.65;;;;;;;;;;5014555;28;20037;-56
2021/11/18 01:38:09;;;;;;;8.70;2.38;;;;;;;;;;5012756;28;20037;-53
2021/11/18 01:40:38;;;;;;;13.75;2.78;;;;;;;;;;5019284;28;20045;-53
2021/11/18 01:43:05;;;;;;;8.48;2.90;;;;;;;;;;5015797;28;20051;-51
2021/11/18 01:45:32;;;;;;;7.68;2.88;;;;;;;;;;5014842;28;20047;-53
2021/11/18 01:47:59;;;;;;;15.32;2.85;;;;;;;;;;5023219;28;20134;-54
2021/11/18 01:50:27;;;;;;;5.88;2.25;;;;;;;;;;5026950;28;20056;-50
2021/11/18 01:52:55;;;;;;;11.38;2.72;;;;;;;;;;5021027;28;20077;-54
2021/11/18 01:55:23;;;;;;;3.55;1.65;;;;;;;;;;5007784;28;20025;-53
2021/11/18 01:57:50;;;;;;;8.68;2.17;;;;;;;;;;5005217;28;20048;-53
2021/11/18 02:00:20;;;;;;;10.63;2.78;;;;;;;;;;5007994;28;20041;-51
2021/11/18 02:02:47;;;;;;;10.52;2.92;;;;;;;;;;5007584;28;20127;-49
2021/11/18 02:05:16;;;;;;;7.00;2.05;;;;;;;;;;5002443;28;20058;-55
2021/11/18 02:07:42;;;;;;;;;;;;;;;;;;5005236;28;20053;-51
2021/11/18 02:10:12;;;;;;;13.05;2.58;;;;;;;;;;5001277;28;19932;-53
2021/11/18 02:12:39;;;;;;;13.15;2.78;;;;;;;;;;5007734;28;20033;-51
2021/11/18 02:15:15;;;;;;;6.97;3.08;;;;;;;;;;5018453;28;20045;-52
2021/11/18 02:17:42;;;;;;;9.73;2.50;;;;;;;;;;5008078;28;20037;-54
2021/11/18 02:20:17;;;;;;;9.23;3.03;;;;;;;;;;5004044;28;20037;-55
2021/11/18 02:22:44;;;;;;;12.65;3.78;;;;;;;;;;5008721;28;20050;-51
2021/11/18 02:25:12;;;;;;;14.75;4.82;;;;;;;;;;5022545;28;20058;-53
2021/11/18 02:27:38;;;;;;;11.73;4.82;;;;;;;;;;5008165;28;20037;-55
2021/11/18 02:30:07;;;;;;;16.73;4.38;;;;;;;;;;5001865;28;20070;-55
2021/11/18 02:32:37;;;;;;;18.98;4.18;;;;;;;;;;5004973;28;20046;-55
2021/11/18 02:35:06;;;;;;;9.50;3.38;;;;;;;;;;5001653;28;20048;-52
2021/11/18 02:37:34;;;;;;;10.85;3.58;;;;;;;;;;5005810;28;20096;-55
2021/11/18 02:40:00;;;;;;;10.48;3.55;;;;;;;;;;4998901;28;20046;-52
2021/11/18 02:42:27;;;;;;;14.52;3.72;;;;;;;;;;4995263;28;20053;-51
2021/11/18 02:44:54;;;;;;;11.27;3.25;;;;;;;;;;5003376;28;20022;-54
2021/11/18 02:47:20;;;;;;;8.48;2.90;;;;;;;;;;5023982;28;20049;-53
2021/11/18 02:49:48;;;;;;;12.30;3.35;;;;;;;;;;5021399;28;20137;-51
2021/11/18 02:52:16;;;;;;;12.88;3.40;;;;;;;;;;5028632;28;20049;-52
2021/11/18 02:54:45;;;;;;;14.98;3.95;;;;;;;;;;5024865;28;20059;-51
2021/11/18 02:57:11;;;;;;;10.35;3.30;;;;;;;;;;5020882;28;20635;-49
2021/11/18 02:59:38;;;;;;;16.80;3.95;;;;;;;;;;5007720;28;20538;-51
2021/11/18 03:02:05;;;;;;;13.30;3.95;;;;;;;;;;5017906;28;20045;-52
2021/11/18 03:04:34;;;;;;;11.35;3.78;;;;;;;;;;5026666;28;20037;-52
2021/11/18 03:07:02;;;;;;;13.48;3.75;;;;;;;;;;5008519;28;20133;-51
2021/11/18 03:09:29;;;;;;;11.00;3.75;;;;;;;;;;5023767;28;20045;-54
2021/11/18 03:11:58;;;;;;;13.65;3.25;;;;;;;;;;5013830;28;20049;-54
2021/11/18 03:14:25;;;;;;;9.50;2.97;;;;;;;;;;5043532;28;20045;-54
2021/11/18 03:16:51;;;;;;;14.63;4.13;;;;;;;;;;5023494;28;20049;-54
2021/11/18 03:19:18;;;;;;;14.73;3.55;;;;;;;;;;5026049;28;20059;-52
2021/11/18 03:21:45;;;;;;;12.15;3.67;;;;;;;;;;5021265;28;20045;-54
2021/11/18 03:24:11;;;;;;;9.32;3.15;;;;;;;;;;5026837;28;20037;-54
2021/11/18 03:26:38;;;;;;;13.95;3.28;;;;;;;;;;5035724;28;20041;-53
2021/11/18 03:29:06;;;;;;;10.85;3.42;;;;;;;;;;5006578;28;20048;-52
2021/11/18 03:31:33;;;;;;;13.00;3.38;;;;;;;;;;5004783;28;20111;-52
2021/11/18 03:34:01;;;;;;;19.33;4.43;;;;;;;;;;5025231;28;20045;-53
2021/11/18 03:36:28;;;;;;;13.52;4.18;;;;;;;;;;5025441;28;20034;-55
2021/11/18 03:38:55;;;;;;;10.97;2.93;;;;;;;;;;5025197;28;20055;-52
2021/11/18 03:41:23;;;;;;;12.88;4.28;;;;;;;;;;5026814;28;20274;-53
2021/11/18 03:43:50;;;;;;;10.38;3.00;;;;;;;;;;5020797;28;20041;-49
2021/11/18 03:46:20;;;;;;;14.63;3.25;;;;;;;;;;5026080;28;20045;-54
2021/11/18 03:48:47;;;;;;;12.48;3.45;;;;;;;;;;5006571;28;20065;-54
2021/11/18 03:51:14;;;;;;;12.23;3.42;;;;;;;;;;5023527;28;20054;-53
2021/11/18 03:53:41;;;;;;;9.95;3.45;;;;;;;;;;5016336;28;20041;-54
2021/11/18 03:56:09;;;;;;;15.23;3.92;;;;;;;;;;5025377;28;20450;-51
2021/11/18 03:58:35;;;;;;;14.35;3.55;;;;;;;;;;5020285;28;20049;-53
2021/11/18 04:01:02;;;;;;;11.55;3.05;;;;;;;;;;5026158;28;20045;-53
2021/11/18 04:03:30;;;;;;;11.30;3.42;;;;;;;;;;5014429;28;20123;-52
2021/11/18 04:05:56;;;;;;;19.23;3.60;;;;;;;;;;5024005;28;20042;-52
2021/11/18 04:08:23;;;;;;;14.85;3.03;;;;;;;;;;5003972;28;20037;-55
2021/11/18 04:10:49;;;;;;;16.02;3.28;;;;;;;;;;5005144;28;20046;-52
2021/11/18 04:13:16;;;;;;;11.18;3.70;;;;;;;;;;5015524;28;20049;-52
2021/11/18 04:15:49;;;;;;;20.23;3.63;;;;;;;;;;5007680;28;20041;-54
2021/11/18 04:18:15;;;;;;;13.73;3.30;;;;;;;;;;5005491;28;20042;-55
2021/11/18 04:20:45;;;;;;;10.98;3.00;;;;;;;;;;5026772;28;20030;-56
2021/11/18 04:23:11;;;;;;;13.60;3.15;;;;;;;;;;5024429;28;20056;-57
2021/11/18 04:25:39;;;;;;;11.45;2.95;;;;;;;;;;5020687;28;20037;-56
2021/11/18 04:28:06;;;;;;;12.48;3.67;;;;;;;;;;5043111;28;20034;-54
2021/11/18 04:30:34;;;;;;;12.35;3.25;;;;;;;;;;5022054;28;20123;-56
2021/11/18 04:33:00;;;;;;;10.60;3.20;;;;;;;;;;5020792;28;20044;-56
2021/11/18 04:35:27;;;;;;;10.30;3.25;;;;;;;;;;5015384;28;20335;-56
2021/11/18 04:37:55;;;;;;;17.73;3.83;;;;;;;;;;5025082;28;20037;-54
2021/11/18 04:40:21;;;;;;;21.70;4.40;;;;;;;;;;5019506;28;20041;-55
2021/11/18 04:42:48;;;;;;;7.00;2.67;;;;;;;;;;5044582;28;20051;-56
2021/11/18 04:45:16;;;;;;;10.98;3.42;;;;;;;;;;5039199;28;20056;-56
2021/11/18 04:47:42;;;;;;;12.37;3.53;;;;;;;;;;5026116;28;20041;-54
2021/11/18 04:50:09;;;;;;;11.30;3.45;;;;;;;;;;5038712;28;20041;-55
2021/11/18 04:52:36;;;;;;;21.23;4.40;;;;;;;;;;5024085;28;20037;-56
2021/11/18 04:55:05;;;;;;;17.52;3.70;;;;;;;;;;5018379;28;20052;-54
2021/11/18 04:57:31;;;;;;;19.90;3.95;;;;;;;;;;5040587;28;20089;-52
2021/11/18 04:59:58;;;;;;;13.55;3.40;;;;;;;;;;5017764;28;20041;-55
2021/11/18 05:02:25;;;;;;;14.85;4.13;;;;;;;;;;5021856;28;20037;-54
2021/11/18 05:04:52;;;;;;;17.75;4.68;;;;;;;;;;5024625;28;20048;-53
2021/11/18 05:07:19;;;;;;;18.88;4.45;;;;;;;;;;4991239;28;20030;-55
2021/11/18 05:09:46;;;;;;;16.23;3.78;;;;;;;;;;5004155;28;20045;-55
2021/11/18 05:12:14;;;;;;;10.90;2.97;;;;;;;;;;5008225;28;20053;-54
2021/11/18 05:14:41;;;;;;;;;;;;;;;;;;5023927;28;20088;-49
2021/11/18 05:17:08;;;;;;;12.80;2.83;;;;;;;;;;5005609;28;19977;-53
2021/11/18 05:19:35;;;;;;;13.52;3.20;;;;;;;;;;5022685;28;20049;-51
2021/11/18 05:22:01;;;;;;;10.77;3.28;;;;;;;;;;5000601;28;20046;-53
2021/11/18 05:24:28;;;;;;;18.48;4.13;;;;;;;;;;5003778;28;20062;-53
2021/11/18 05:26:54;;;;;;;15.35;3.85;;;;;;;;;;5010718;28;20060;-54
2021/11/18 05:29:22;;;;;;;15.50;4.25;;;;;;;;;;5005420;28;20030;-54
2021/11/18 05:31:49;;;;;;;11.93;3.97;;;;;;;;;;5001991;28;20073;-54
2021/11/18 05:34:16;;;;;;;12.82;3.72;;;;;;;;;;5019072;28;20049;-53
2021/11/18 05:36:42;;;;;;;18.33;4.18;;;;;;;;;;5020005;28;20048;-53
2021/11/18 05:39:09;;;;;;;15.38;4.10;;;;;;;;;;5024549;28;20048;-55
2021/11/18 05:41:35;;;;;;;10.90;3.40;;;;;;;;;;5019086;28;20048;-55
2021/11/18 05:44:03;;;;;;;9.68;3.33;;;;;;;;;;5005588;28;20038;-54
2021/11/18 05:46:32;;;;;;;16.00;4.28;;;;;;;;;;5023791;28;20049;-57
2021/11/18 05:48:59;;;;;;;;;;;;;;;;;;5003561;28;20046;-57
2021/11/18 05:51:25;;;;;;;15.65;3.35;;;;;;;;;;5003724;28;19937;-54
2021/11/18 05:53:52;;;;;;;11.15;3.80;;;;;;;;;;5022582;28;20042;-55
2021/11/18 05:56:20;;;;;;;20.02;5.10;;;;;;;;;;5007663;28;20053;-53
2021/11/18 05:58:47;;;;;;;15.68;5.28;;;;;;;;;;5018705;28;20192;-56
2021/11/18 06:01:14;;;;;;;20.65;6.80;;;;;;;;;;5026512;28;20052;-56
2021/11/18 06:03:42;;;;;;;18.00;5.30;;;;;;;;;;5021443;28;20041;-50
2021/11/18 06:06:09;;;;;;;11.13;4.10;;;;;;;;;;5022541;28;20107;-54
2021/11/18 06:08:35;;;;;;;15.63;4.55;;;;;;;;;;5021281;28;20037;-57
2021/11/18 06:11:03;;;;;;;18.23;5.25;;;;;;;;;;5023019;28;20060;-55
2021/11/18 06:13:29;;;;;;;14.88;4.03;;;;;;;;;;5019421;28;20029;-52
2021/11/18 06:15:56;;;;;;;21.70;4.93;;;;;;;;;;5023719;28;20041;-53
2021/11/18 06:18:22;;;;;;;16.40;5.10;;;;;;;;;;5019809;28;20125;-53
2021/11/18 06:20:50;;;;;;;17.20;5.45;;;;;;;;;;5020252;28;20053;-55
2021/11/18 06:23:17;;;;;;;16.80;4.97;;;;;;;;;;5018656;28;20057;-51
2021/11/18 06:25:43;;;;;;;21.10;4.78;;;;;;;;;;5022343;28;20487;-53
2021/11/18 06:28:13;;;;;;;13.57;4.70;;;;;;;;;;5021874;28;20057;-51
2021/11/18 06:30:41;;;;;;;22.02;5.43;;;;;;;;;;5018550;28;20077;-54
2021/11/18 06:33:08;;;;;;;29.00;5.60;;;;;;;;;;5022000;28;20052;-53
2021/11/18 06:35:34;;;;;;;13.55;4.63;;;;;;;;;;5036564;28;20049;-55
2021/11/18 06:38:02;;;;;;;15.05;4.45;;;;;;;;;;5020402;28;20029;-55
2021/11/18 06:40:29;;;;;;;26.57;5.67;;;;;;;;;;5019976;28;20038;-54
2021/11/18 06:42:55;;;;;;;22.13;5.75;;;;;;;;;;5041198;28;20029;-54
2021/11/18 06:45:24;;;;;;;19.40;5.70;;;;;;;;;;5017170;28;20033;-52
2021/11/18 06:47:50;;;;;;;27.10;7.10;;;;;;;;;;5023335;28;20052;-53
2021/11/18 06:50:17;;;;;;;18.58;5.47;;;;;;;;;;5019776;28;20041;-55
2021/11/18 06:52:44;;;;;;;17.20;4.90;;;;;;;;;;5026994;28;20038;-53
2021/11/18 06:55:12;;;;;;;15.10;4.47;;;;;;;;;;5032916;28;20037;-53
2021/11/18 06:57:39;;;;;;;15.65;4.32;;;;;;;;;;5005557;28;20111;-50
2021/11/18 07:00:06;;;;;;;20.02;4.50;;;;;;;;;;5009045;28;20029;-49
2021/11/18 07:02:32;;;;;;;13.93;4.45;;;;;;;;;;5044129;28;20171;-53
2021/11/18 07:04:59;;;;;;;9.85;3.15;;;;;;;;;;5002534;28;20055;-55
2021/11/18 07:07:25;;;;;;;15.48;4.38;;;;;;;;;;5025138;28;20034;-55
2021/11/18 07:09:52;;;;;;;17.20;4.10;;;;;;;;;;5003529;28;20038;-57
2021/11/18 07:12:21;;;;;;;14.05;3.78;;;;;;;;;;5017615;28;20161;-54
2021/11/18 07:14:49;;;;;;;14.32;4.50;;;;;;;;;;5028098;28;20060;-54
2021/11/18 07:17:16;;;;;;;17.27;4.53;;;;;;;;;;5019921;28;20127;-54
2021/11/18 07:19:43;;;;;;;15.90;4.10;;;;;;;;;;5007719;28;20045;-53
2021/11/18 07:22:09;;;;;;;19.30;4.25;;;;;;;;;;5021216;28;20045;-54
2021/11/18 07:24:36;;;;;;;22.60;4.93;;;;;;;;;;5026727;28;20095;-54
2021/11/18 07:27:03;;;;;;;14.52;4.70;;;;;;;;;;5008571;28;20056;-56
2021/11/18 07:29:32;;;;;;;14.00;3.60;;;;;;;;;;5005849;28;20045;-56
2021/11/18 07:31:59;;;;;;;13.88;4.88;;;;;;;;;;5001978;28;20148;-55
2021/11/18 07:34:26;;;;;;;19.48;4.60;;;;;;;;;;5004812;28;20046;-56
2021/11/18 07:36:52;;;;;;;13.45;4.45;;;;;;;;;;5014848;28;20045;-53
2021/11/18 07:39:22;;;;;;;15.38;4.63;;;;;;;;;;5025193;28;20118;-56
2021/11/18 07:41:49;;;;;;;15.60;4.70;;;;;;;;;;5016879;28;20034;-55
2021/11/18 07:44:15;;;;;;;18.38;6.10;;;;;;;;;;5024804;28;20073;-57
2021/11/18 07:46:44;;;;;;;22.45;7.45;;;;;;;;;;5002303;28;20057;-57
2021/11/18 07:49:10;;;;;;;24.88;5.68;;;;;;;;;;5023211;28;20042;-54
2021/11/18 07:51:38;;;;;;;17.48;4.18;;;;;;;;;;5001612;28;20044;-56
2021/11/18 07:54:05;;;;;;;22.70;5.10;;;;;;;;;;5003064;28;20038;-54
2021/11/18 07:56:32;;;;;;;25.20;5.30;;;;;;;;;;5005151;28;20045;-57
2021/11/18 07:58:58;;;;;;;21.33;5.65;;;;;;;;;;5021123;28;20049;-56
2021/11/18 08:01:25;;;;;;;18.48;5.28;;;;;;;;;;5024342;28;20049;-56
2021/11/18 08:03:53;;;;;;;22.13;5.03;;;;;;;;;;5019542;28;20122;-57
2021/11/18 08:06:21;;;;;;;27.90;5.17;;;;;;;;;;5041860;28;20037;-54
2021/11/18 08:08:48;;;;;;;11.68;3.97;;;;;;;;;;5006998;28;20059;-49
2021/11/18 08:11:15;;;;;;;23.45;5.72;;;;;;;;;;5006611;28;20045;-54
2021/11/18 08:13:42;;;;;;;17.13;5.00;;;;;;;;;;5019649;28;20400;-52
2021/11/18 08:16:08;;;;;;;23.17;5.13;;;;;;;;;;5025310;28;20045;-53
2021/11/18 08:18:34;;;;;;;18.08;5.50;;;;;;;;;;5004269;28;20059;-53
2021/11/18 08:21:03;;;;;;;20.30;5.30;;;;;;;;;;5007223;28;20026;-52
2021/11/18 08:23:32;;;;;;;21.27;6.15;;;;;;;;;;5008888;28;20037;-52
2021/11/18 08:25:58;;;;;;;26.48;8.48;;;;;;;;;;5026043;28;20029;-52
2021/11/18 08:28:25;;;;;;;19.02;5.80;;;;;;;;;;5036489;28;20050;-55
2021/11/18 08:30:52;;;;;;;24.77;5.85;;;;;;;;;;5024337;28;20044;-55
2021/11/18 08:33:19;;;;;;;26.30;5.35;;;;;;;;;;5004437;28;20053;-56
2021/11/18 08:35:46;;;;;;;13.27;4.22;;;;;;;;;;5025812;28;20041;-56
2021/11/18 08:38:16;;;;;;;18.23;5.55;;;;;;;;;;5024567;28;20041;-57
2021/11/18 08:40:51;;;;;;;24.88;4.80;;;;;;;;;;5025656;28;20045;-58
2021/11/18 08:43:18;;;;;;;24.42;5.57;;;;;;;;;;5026829;28;20041;-56
2021/11/18 08:45:45;;;;;;;22.45;6.03;;;;;;;;;;5001735;28;20050;-55
2021/11/18 08:48:11;;;;;;;20.45;5.55;;;;;;;;;;5003653;28;20042;-53
2021/11/18 08:50:40;;;;;;;18.15;5.60;;;;;;;;;;5015092;28;20065;-56
2021/11/18 08:53:07;;;;;;;31.00;6.63;;;;;;;;;;5025289;28;20045;-54
2021/11/18 08:55:38;;;;;;;22.40;5.82;;;;;;;;;;5007290;28;20046;-57
2021/11/18 08:58:05;;;;;;;23.38;6.00;;;;;;;;;;5004420;28;20124;-58
2021/11/18 09:00:33;;;;;;;20.13;4.90;;;;;;;;;;5002287;28;20053;-52
2021/11/18 09:02:59;;;;;;;24.05;5.43;;;;;;;;;;5005356;28;20058;-54
2021/11/18 09:05:27;;;;;;;23.65;6.15;;;;;;;;;;4999274;28;20153;-55
2021/11/18 09:07:54;;;;;;;22.10;6.30;;;;;;;;;;4986283;28;20026;-57
2021/11/18 09:10:21;;;;;;;21.45;5.78;;;;;;;;;;4989244;28;20298;-56
2021/11/18 09:12:49;;;;;;;18.80;4.72;;;;;;;;;;5005188;28;20049;-53
2021/11/18 09:15:17;;;;;;;17.00;5.00;;;;;;;;;;5006930;28;20223;-53
2021/11/18 09:17:44;;;;;;;19.15;5.18;;;;;;;;;;5025480;28;20049;-56
2021/11/18 09:20:12;;;;;;;28.98;5.57;;;;;;;;;;5018103;28;20038;-56
2021/11/18 09:22:41;;;;;;;21.77;5.55;;;;;;;;;;5003373;28;20046;-55
2021/11/18 09:25:09;;;;;;;27.02;5.85;;;;;;;;;;5018420;28;20042;-54
2021/11/18 09:27:37;;;;;;;11.73;4.53;;;;;;;;;;5018159;28;20056;-54
2021/11/18 09:30:10;;;;;;;31.88;6.03;;;;;;;;;;5025964;28;20139;-53
2021/11/18 09:32:37;;;;;;;25.52;6.07;;;;;;;;;;5022446;28;20052;-57
2021/11/18 09:35:07;;;;;;;25.77;7.75;;;;;;;;;;5008787;28;20038;-56
2021/11/18 09:37:33;;;;;;;24.50;5.97;;;;;;;;;;5004869;28;20046;-57
2021/11/18 09:40:00;;;;;;;27.00;5.93;;;;;;;;;;5024789;28;20128;-56
2021/11/18 09:42:30;;;;;;;32.63;6.22;;;;;;;;;;4995617;28;20038;-57
2021/11/18 09:45:10;;;;;;;15.68;5.35;;;;;;;;;;4987416;28;20053;-56
2021/11/18 09:47:55;;;;;;;22.92;5.55;;;;;;;;;;5003277;28;20042;-56
2021/11/18 09:50:30;;;;;;;33.08;6.70;;;;;;;;;;5001676;28;20050;-54
2021/11/18 09:53:05;;;;;;;25.98;6.00;;;;;;;;;;4985320;28;20042;-54
2021/11/18 09:55:36;;;;;;;24.90;6.22;;;;;;;;;;4987986;28;20050;-56
2021/11/18 09:58:17;;;;;;;30.45;6.90;;;;;;;;;;4984212;28;20046;-56
2021/11/18 10:00:53;;;;;;;20.73;6.95;;;;;;;;;;4986633;28;20046;-53
2021/11/18 10:03:29;;;;;;;21.60;5.47;;;;;;;;;;4999936;28;20057;-56
2021/11/18 10:06:05;;;;;;;22.65;5.68;;;;;;;;;;5008984;28;20045;-53
2021/11/18 10:08:33;;;;;;;24.00;5.80;;;;;;;;;;4999017;28;20041;-55
2021/11/18 10:11:14;;;;;;;19.95;5.22;;;;;;;;;;5016112;28;20034;-54
2021/11/18 10:13:51;;;;;;;18.25;4.80;;;;;;;;;;4998265;28;20048;-56
2021/11/18 10:16:19;;;;;;;20.95;5.10;;;;;;;;;;5007062;28;20046;-58
2021/11/18 10:18:47;;;;;;;22.08;5.13;;;;;;;;;;5000429;28;20042;-56
2021/11/18 10:21:16;;;;;;;21.63;5.03;;;;;;;;;;4988888;28;20042;-58
2021/11/18 10:23:43;;;;;;;35.03;5.30;;;;;;;;;;4995283;28;20045;-57
2021/11/18 10:26:11;;;;;;;22.20;5.07;;;;;;;;;;5007997;28;20041;-57
2021/11/18 10:28:41;;;;;;;29.98;5.22;;;;;;;;;;4994638;28;20485;-57
2021/11/18 10:31:16;;;;;;;24.20;5.15;;;;;;;;;;4992363;28;20077;-55
2021/11/18 10:33:45;;;;;;;26.45;4.72;;;;;;;;;;4999548;28;20042;-57
2021/11/18 10:36:13;;;;;;;22.98;4.35;;;;;;;;;;5005919;28;20057;-58
2021/11/18 10:38:42;;;;;;;34.75;5.88;;;;;;;;;;5001538;28;20105;-57
2021/11/18 10:41:19;;;;;;;24.40;4.68;;;;;;;;;;5004568;28;20061;-55
2021/11/18 10:44:02;;;;;;;24.70;5.32;;;;;;;;;;5013761;28;20058;-57
2021/11/18 10:46:31;;;;;;;23.88;4.85;;;;;;;;;;5006898;28;20037;-57
2021/11/18 10:49:01;;;;;;;29.27;6.03;;;;;;;;;;4998604;28;20132;-58
2021/11/18 10:51:32;;;;;;;19.70;5.65;;;;;;;;;;5009484;28;20089;-55
2021/11/18 10:54:00;;;;;;;24.63;5.45;;;;;;;;;;5000747;28;20037;-57
2021/11/18 10:56:31;;;;;;;38.58;4.85;;;;;;;;;;5011641;28;20042;-56
2021/11/18 10:59:03;;;;;;;24.55;5.93;;;;;;;;;;5008141;28;20053;-57
2021/11/18 11:01:31;;;;;;;28.60;5.68;;;;;;;;;;4987230;28;20057;-57
2021/11/18 11:03:59;;;;;;;32.42;5.75;;;;;;;;;;4985778;28;20174;-56
2021/11/18 11:06:27;;;;;;;40.05;7.38;;;;;;;;;;5005237;28;20038;-55
2021/11/18 11:08:55;;;;;;;32.97;6.38;;;;;;;;;;5005123;28;20053;-56
2021/11/18 11:11:42;;;;;;;26.73;5.38;;;;;;;;;;5021261;28;20037;-57
2021/11/18 11:14:19;;;;;;;19.38;5.47;;;;;;;;;;5002790;28;20030;-58
2021/11/18 11:16:52;;;;;;;28.63;5.75;;;;;;;;;;5004754;28;20188;-58
2021/11/18 11:19:25;;;;;;;30.02;5.50;;;;;;;;;;5007847;28;20049;-58
2021/11/18 11:21:56;;;;;;;23.45;5.18;;;;;;;;;;5003249;28;20045;-56
2021/11/18 11:24:47;;;;;;;29.50;5.32;;;;;;;;;;5003713;28;20046;-58
2021/11/18 11:27:26;;;;;;;27.27;5.32;;;;;;;;;;5008377;28;20060;-55
2021/11/18 11:29:53;;;;;;;21.33;5.00;;;;;;;;;;5024631;28;20056;-56
2021/11/18 11:32:25;;;;;;;22.30;4.90;;;;;;;;;;5003027;28;20168;-58
2021/11/18 11:34:58;;;;;;;17.55;4.43;;;;;;;;;;5026031;28;20034;-56
2021/11/18 11:37:37;;;;;;;25.83;4.72;;;;;;;;;;5000800;28;20054;-58
2021/11/18 11:40:05;;;;;;;20.75;5.10;;;;;;;;;;4988462;28;20057;-57
2021/11/18 11:42:50;;;;;;;23.83;4.72;;;;;;;;;;4990636;28;20038;-57
2021/11/18 11:45:18;;;;;;;22.98;5.22;;;;;;;;;;4993167;28;20070;-56
2021/11/18 11:47:56;;;;;;;26.83;5.10;;;;;;;;;;5021220;28;20041;-53
2021/11/18 11:50:25;;;;;;;16.55;4.38;;;;;;;;;;5005175;28;20081;-54
2021/11/18 11:52:58;;;;;;;25.15;4.28;;;;;;;;;;5003572;28;20103;-57
2021/11/18 11:55:46;;;;;;;15.88;4.22;;;;;;;;;;5005516;28;20053;-54
2021/11/18 11:58:15;;;;;;;22.40;4.53;;;;;;;;;;4988590;28;20073;-57
2021/11/18 12:00:48;;;;;;;21.95;4.50;;;;;;;;;;5004674;28;20057;-56
2021/11/18 12:03:18;;;;;;;27.30;4.32;;;;;;;;;;4985104;28;20049;-55
2021/11/18 12:05:52;;;;;;;26.35;5.10;;;;;;;;;;4986811;28;20276;-55
2021/11/18 12:08:23;;;;;;;16.65;4.25;;;;;;;;;;4999350;28;20049;-55
2021/11/18 12:10:53;;;;;;;20.77;4.60;;;;;;;;;;5006277;28;20026;-54
2021/11/18 12:13:26;;;;;;;15.10;4.03;;;;;;;;;;5003610;28;20061;-55
2021/11/18 12:15:55;;;;;;;17.90;3.72;;;;;;;;;;5015724;28;20070;-55
2021/11/18 12:18:25;;;;;;;23.85;4.63;;;;;;;;;;4993893;28;20128;-58
2021/11/18 12:20:55;;;;;;;27.98;4.38;;;;;;;;;;4985676;28;20046;-57
2021/11/18 12:23:43;;;;;;;22.35;4.47;;;;;;;;;;4982160;28;20061;-54
2021/11/18 12:26:17;;;;;;;17.05;4.00;;;;;;;;;;5002933;28;20046;-55
2021/11/18 12:28:57;;;;;;;21.58;4.32;;;;;;;;;;4994377;28;20148;-55
2021/11/18 12:31:30;;;;;;;28.08;4.30;;;;;;;;;;5004939;28;20041;-56
2021/11/18 12:33:59;;;;;;;20.75;3.78;;;;;;;;;;5000591;28;20041;-58
2021/11/18 12:36:53;;;;;;;17.20;3.88;;;;;;;;;;5005709;28;20123;-57
2021/11/18 12:39:39;;;;;;;26.90;3.47;;;;;;;;;;5000186;28;20041;-55
2021/11/18 12:42:16;;;;;;;23.67;3.90;;;;;;;;;;5010224;28;20048;-56
2021/11/18 12:44:50;;;;;;;24.67;4.20;;;;;;;;;;5004780;28;20037;-58
2021/11/18 12:47:18;;;;;;;18.45;4.20;;;;;;;;;;5023252;28;20126;-55
2021/11/18 12:50:03;;;;;;;23.58;6.85;;;;;;;;;;5015761;28;20045;-58
2021/11/18 12:52:31;;;;;;;20.85;4.15;;;;;;;;;;5025401;28;20041;-56
2021/11/18 12:55:15;;;;;;;16.52;4.15;;;;;;;;;;5006766;28;20053;-56
2021/11/18 12:57:44;;;;;;;25.58;5.05;;;;;;;;;;5023163;28;20049;-58
2021/11/18 13:00:31;;;;;;;19.65;4.35;;;;;;;;;;5001140;28;20128;-57
2021/11/18 13:02:59;;;;;;;23.20;4.50;;;;;;;;;;5004578;28;20052;-58
2021/11/18 13:05:42;;;;;;;26.40;4.10;;;;;;;;;;5002844;28;20030;-56
2021/11/18 13:08:23;;;;;;;21.63;3.92;;;;;;;;;;5022362;28;20119;-58
2021/11/18 13:10:53;;;;;;;26.50;4.10;;;;;;;;;;5001358;28;20075;-57
2021/11/18 13:13:27;;;;;;;19.30;4.32;;;;;;;;;;5000375;28;20094;-56
2021/11/18 13:16:24;;;;;;;20.00;4.22;;;;;;;;;;5014297;28;20045;-57
2021/11/18 13:18:59;;;;;;;23.67;4.22;;;;;;;;;;5008482;28;20046;-58
2021/11/18 13:21:26;;;;;;;20.65;4.20;;;;;;;;;;4998407;28;20045;-56
2021/11/18 13:23:55;;;;;;;21.63;4.43;;;;;;;;;;4985588;28;20054;-56
2021/11/18 13:26:23;;;;;;;26.17;4.65;;;;;;;;;;4998802;28;20354;-56
2021/11/18 13:29:12;;;;;;;26.98;5.35;;;;;;;;;;5003356;28;20041;-56
2021/11/18 13:31:40;;;;;;;15.80;3.55;;;;;;;;;;5000689;28;20041;-54
2021/11/18 13:34:11;;;;;;;18.75;3.92;;;;;;;;;;5005717;28;20069;-56
2021/11/18 13:36:38;;;;;;;25.00;4.22;;;;;;;;;;5001818;28;20062;-58
2021/11/18 13:39:06;;;;;;;19.52;4.18;;;;;;;;;;5003641;28;20069;-53
2021/11/18 13:41:35;;;;;;;26.23;3.53;;;;;;;;;;4999629;28;20046;-56
2021/11/18 13:44:04;;;;;;;17.85;3.15;;;;;;;;;;5003312;28;20045;-57
2021/11/18 13:46:33;;;;;;;16.10;2.80;;;;;;;;;;5011604;28;20049;-53
2021/11/18 13:49:01;;;;;;;22.80;3.65;;;;;;;;;;5023975;28;20085;-55
2021/11/18 13:51:34;;;;;;;17.98;2.88;;;;;;;;;;5012995;28;20042;-57
2021/11/18 13:54:01;;;;;;;21.35;2.97;;;;;;;;;;5003283;28;20034;-56
2021/11/18 13:56:34;;;;;;;15.63;2.88;;;;;;;;;;5007132;28;20040;-57
2021/11/18 13:59:02;;;;;;;21.63;2.75;;;;;;;;;;5021671;28;20056;-56
2021/11/18 14:01:31;;;;;;;16.70;2.83;;;;;;;;;;5018070;28;20041;-57
2021/11/18 14:03:59;;;;;;;17.10;3.45;;;;;;;;;;5023222;28;20052;-55
2021/11/18 14:06:27;;;;;;;15.10;2.85;;;;;;;;;;5016893;28;20029;-58
2021/11/18 14:08:55;;;;;;;24.33;3.37;;;;;;;;;;5003901;28;20042;-58
2021/11/18 14:11:22;;;;;;;20.90;3.10;;;;;;;;;;5000414;28;20333;-52
2021/11/18 14:14:00;;;;;;;15.55;3.28;;;;;;;;;;5026248;28;20063;-58
2021/11/18 14:16:28;;;;;;;15.02;2.80;;;;;;;;;;5023872;28;20045;-58
2021/11/18 14:19:01;;;;;;;23.73;3.47;;;;;;;;;;4997728;28;20047;-58
2021/11/18 14:21:32;;;;;;;13.00;2.85;;;;;;;;;;5013750;28;20049;-59
2021/11/18 14:24:03;;;;;;;20.80;3.00;;;;;;;;;;5023918;28;20060;-58
2021/11/18 14:26:38;;;;;;;13.07;2.65;;;;;;;;;;5027844;28;20033;-56
2021/11/18 14:29:27;;;;;;;16.38;2.78;;;;;;;;;;5022006;28;20041;-60
2021/11/18 14:31:56;;;;;;;18.77;3.22;;;;;;;;;;5002008;28;20037;-57
2021/11/18 14:34:29;;;;;;;18.63;2.90;;;;;;;;;;5010651;28;20038;-57
2021/11/18 14:36:57;;;;;;;16.35;2.85;;;;;;;;;;5007638;28;20038;-58
2021/11/18 14:39:27;;;;;;;18.58;2.97;;;;;;;;;;5023305;28;20049;-58
2021/11/18 14:41:55;;;;;;;20.40;2.53;;;;;;;;;;5022916;28;20095;-55
2021/11/18 14:44:33;;;;;;;13.68;2.55;;;;;;;;;;4986458;28;20165;-53
2021/11/18 14:47:02;;;;;;;16.38;2.80;;;;;;;;;;5005471;28;20082;-55